Baltim, Egypt
Current Conditions -  °F | °C
As of 10:00 PM on Saturday 25 Oct 2014 (Local Time) from HEAX Reporting Station
Clear Clear  
Wind Chill: 73°   Ceiling: Unl
Heat Index: 73°   Visibility: 6mi
Dew Point: 66°   Wind: 2mph
Humidity: 78%   Direction: 50°NE
Pressure: 29.94"   Gusts: NA
Location:  31.56°N, 31.09°E
Report Text: HEAX 252000Z 05002KT CAVOK 23/19 Q1014 NOSIG
Loading
Personal Weather Stations






























Interactive Weather Map
Tropical Storm Tracking
New forecast layout! Learn more

10-Day Weather Forecast

Advertisements
Track Severe Weather on mobile